Latest Weather Observations for Salmon Gums RS

IDW60801

Issued at 5:05 pm WST Saturday 19 April 2014 (issued every 30 minutes, with the page automatically refreshed every 10 minutes)

About weather observations | Map of weather stations | Latest weather observations for WA | Other Formats
Station Details ID: 012071 Name: SALMON GUMS RES.STN. Lat: -32.99 Lon: 121.62 Height: 249.0 m
Data from the previous 72 hours. | See also: Recent months at Salmon Gums RS
Date/Time
WST
Temp
°C
App
Temp
°C
Dew
Point
Rel
Hum
%
Delta-T
°C
Wind Press
QNH
hPa
Press
MSL
hPa
Rain
since 9 am
mm
Dir
 
Spd
km/h
Gust
km/h
Spd
kts
Gust
kts
19/05:00pm 20.8 16.5 10.6 52 5.6 S 24 32 13 17 - - 0.0
19/04:30pm 22.2 17.7 10.0 46 6.7 S 24 35 13 19 - - 0.0
19/04:00pm 23.6 19.3 10.6 44 7.3 S 24 33 13 18 - - 0.0
19/03:30pm 24.8 20.1 10.7 41 7.9 S 26 39 14 21 - - 0.0
19/03:00pm 25.8 20.8 9.6 36 9.0 SSW 26 33 14 18 - - 0.0
19/02:30pm 27.2 22.9 9.5 33 9.9 SSW 22 33 12 18 - - 0.0
19/02:00pm 27.4 23.2 9.7 33 9.9 SSW 22 33 12 18 - - 0.0
19/01:30pm 27.3 23.9 9.2 32 10.1 SSW 17 24 9 13 - - 0.0
19/01:00pm 27.9 23.8 10.1 33 10.1 SSW 22 35 12 19 - - 0.0
19/12:30pm 27.5 23.5 8.9 31 10.3 SSW 20 28 11 15 - - 0.0
19/12:00pm 28.7 25.1 6.7 25 11.8 W 15 24 8 13 - - 0.0
19/11:30am 28.1 25.4 7.4 27 11.2 W 11 24 6 13 - - 0.0
19/11:00am 27.4 23.7 7.8 29 10.7 WNW 17 24 9 13 - - 0.0
19/10:30am 26.7 23.3 7.7 30 10.3 WNW 15 26 8 14 - - 0.0
19/10:00am 23.9 20.7 8.3 37 8.4 WNW 15 24 8 13 - - 0.0
19/09:30am 22.0 19.6 10.2 47 6.5 WSW 13 19 7 10 - - 0.0
19/09:00am 23.8 21.0 8.6 38 8.2 NW 13 20 7 11 - - 0.0
19/08:30am 22.8 20.3 9.6 43 7.2 NW 13 19 7 10 - - 0.0
19/08:00am 21.7 19.8 10.5 49 6.2 NW 11 17 6 9 - - 0.0
19/07:30am 20.2 18.4 10.9 55 5.1 NNW 11 17 6 9 - - 0.0
19/07:00am 18.0 16.3 11.1 64 3.8 N 11 15 6 8 - - 0.0
19/06:30am 15.7 14.0 11.3 75 2.4 N 11 13 6 7 - - 0.0
19/06:00am 14.1 13.3 11.6 85 1.4 N 7 11 4 6 - - 0.0
19/05:30am 11.0 9.6 9.4 90 0.8 N 7 11 4 6 - - 0.0
19/05:00am 10.7 9.6 8.6 87 1.0 WSW 4 6 2 3 - - 0.0
19/04:30am 9.8 9.4 8.1 89 0.8 CALM 0 4 0 2 - - 0.0
19/04:00am 11.2 11.1 9.6 90 0.8 CALM 0 0 0 0 - - 0.0
19/03:30am 10.7 9.7 8.8 88 1.0 NE 4 6 2 3 - - 0.0
19/03:00am 10.8 10.1 8.7 87 1.0 NE 2 4 1 2 - - 0.0
19/02:30am 11.4 10.8 9.0 85 1.2 E 2 4 1 2 - - 0.0
19/02:00am 12.2 12.1 9.4 83 1.4 CALM 0 2 0 1 - - 0.0
19/01:30am 12.9 11.8 10.1 83 1.5 E 6 6 3 3 - - 0.0
19/01:00am 13.3 12.2 10.1 81 1.7 E 6 7 3 4 - - 0.0
19/12:30am 14.1 13.2 10.5 79 1.9 E 6 7 3 4 - - 0.0
19/12:00am 14.5 13.4 10.5 77 2.1 E 7 9 4 5 - - 0.0
 
Date/Time
WST
Temp
°C
App
Temp
°C
Dew
Point
Rel
Hum
%
Delta-T
°C
Wind Press
QNH
hPa
Press
MSL
hPa
Rain
since 9 am
mm
Dir
 
Spd
km/h
Gust
km/h
Spd
kts
Gust
kts
18/11:30pm 14.9 13.8 10.5 75 2.3 E 7 9 4 5 - - 0.0
18/11:00pm 15.9 14.9 10.9 72 2.7 E 7 9 4 5 - - 0.0
18/10:30pm 15.8 14.8 11.0 73 2.6 E 7 11 4 6 - - 0.0
18/10:00pm 15.7 14.2 10.7 72 2.7 E 9 11 5 6 - - 0.0
18/09:30pm 15.9 14.4 10.4 70 2.9 E 9 11 5 6 - - 0.0
18/09:00pm 16.2 14.9 10.1 67 3.2 ESE 7 9 4 5 - - 0.0
18/08:30pm 16.7 15.4 10.1 65 3.5 ESE 7 9 4 5 - - 0.0
18/08:00pm 17.4 16.3 10.8 65 3.6 ESE 7 11 4 6 - - 0.0
18/07:30pm 16.2 15.4 9.8 66 3.4 SSE 4 6 2 3 - - 0.0
18/07:00pm 16.0 15.0 8.7 62 3.8 ESE 4 4 2 2 - - 0.0
18/06:30pm 17.1 16.7 9.8 62 3.9 ESE 2 4 1 2 - - 0.0
18/06:00pm 18.3 18.3 9.9 58 4.5 CALM 0 0 0 0 - - 0.0
18/05:30pm 20.0 19.4 10.4 54 5.3 ESE 4 4 2 2 - - 0.0
18/05:00pm 21.1 20.6 10.6 51 5.8 E 4 6 2 3 - - 0.0
18/04:30pm 22.1 21.0 10.6 48 6.4 E 7 11 4 6 - - 0.0
18/04:00pm 23.2 21.7 10.6 45 7.0 NE 9 17 5 9 - - 0.0
18/03:30pm 23.5 21.5 10.2 43 7.4 ENE 11 17 6 9 - - 0.0
18/03:00pm 23.5 21.7 10.9 45 7.1 ENE 11 22 6 12 - - 0.0
18/02:30pm 23.3 21.5 10.7 45 7.1 ENE 11 22 6 12 - - 0.0
18/02:00pm 22.9 20.7 10.7 46 6.8 ENE 13 22 7 12 - - 0.0
18/01:30pm 23.0 21.6 10.8 46 6.8 NNE 9 15 5 8 - - 0.0
18/01:00pm 22.4 20.2 10.9 48 6.4 NNE 13 19 7 10 - - 0.0
18/12:30pm 21.4 19.2 10.9 51 5.8 ENE 13 19 7 10 - - 0.0
18/12:00pm 20.2 17.5 10.3 53 5.4 NNE 15 24 8 13 - - 0.0
18/11:30am 19.6 17.3 10.6 56 4.9 NE 13 24 7 13 - - 0.0
18/11:00am 19.9 16.7 11.1 57 4.9 NE 19 26 10 14 - - 0.0
18/10:30am 19.6 16.1 10.9 57 4.8 NE 20 30 11 16 - - 0.0
18/10:00am 19.5 16.0 10.8 57 4.8 NE 20 28 11 15 - - 0.0
18/09:30am 19.1 15.7 10.4 57 4.7 ENE 19 28 10 15 - - 0.0
18/09:00am 18.9 15.5 10.7 59 4.5 ENE 19 26 10 14 - - 0.0
18/08:30am 17.4 14.1 10.8 65 3.6 ENE 19 24 10 13 - - 0.0
18/08:00am 16.8 15.2 11.7 72 2.8 ENE 11 17 6 9 - - 0.0
18/07:30am 14.9 14.1 12.9 88 1.1 NE 9 13 5 7 - - 0.0
18/07:00am 13.0 12.4 11.7 92 0.7 NE 6 7 3 4 - - 0.0
18/06:30am 12.7 11.8 11.3 91 0.7 NE 7 11 4 6 - - 0.0
18/06:00am 12.9 11.6 11.3 90 0.9 NE 9 11 5 6 - - 0.0
18/05:30am 13.6 12.5 11.8 89 1.0 NE 9 15 5 8 - - 0.0
18/05:00am 13.6 12.5 11.8 89 1.0 NE 9 13 5 7 - - 0.0
18/04:30am 13.8 12.7 12.0 89 1.0 ENE 9 13 5 7 - - 0.0
18/04:00am 14.0 13.0 12.2 89 1.0 ENE 9 13 5 7 - - 0.0
18/03:30am 14.1 13.6 12.5 90 0.9 ESE 7 15 4 8 - - 0.0
18/03:00am 14.1 13.6 12.7 91 0.8 ESE 7 11 4 6 - - 0.0
18/02:30am 14.0 13.5 12.6 91 0.8 ESE 7 9 4 5 - - 0.0
18/02:00am 14.0 13.5 12.6 91 0.8 E 7 13 4 7 - - 0.0
18/01:30am 14.3 13.1 12.9 91 0.8 SE 11 17 6 9 - - 0.0
18/01:00am 14.2 13.4 12.9 92 0.7 SE 9 13 5 7 - - 0.0
18/12:30am 13.8 12.5 12.5 92 0.7 SE 11 15 6 8 - - 0.0
18/12:00am 13.7 12.4 12.6 93 0.6 SE 11 19 6 10 - - 0.0
 
Date/Time
WST
Temp
°C
App
Temp
°C
Dew
Point
Rel
Hum
%
Delta-T
°C
Wind Press
QNH
hPa
Press
MSL
hPa
Rain
since 9 am
mm
Dir
 
Spd
km/h
Gust
km/h
Spd
kts
Gust
kts
17/11:30pm 10.1 9.1 8.7 91 0.7 SSE 4 6 2 3 - - 0.0
17/11:00pm 10.4 9.4 8.8 90 0.8 SSE 4 4 2 2 - - 0.0
17/10:30pm 10.7 9.7 9.0 89 0.9 S 4 6 2 3 - - 0.0
17/10:00pm 10.9 9.9 8.7 86 1.1 S 4 6 2 3 - - 0.0
17/09:30pm 12.0 10.8 9.6 85 1.2 S 6 7 3 4 - - 0.0
17/09:00pm 12.7 11.4 9.9 83 1.5 SSE 7 9 4 5 - - 0.0
17/08:30pm 13.8 12.7 10.6 81 1.7 SSE 7 9 4 5 - - 0.0
17/08:00pm 14.8 13.4 10.8 77 2.1 SSE 9 11 5 6 - - 0.0
17/07:30pm 15.9 14.2 11.3 74 2.5 S 11 13 6 7 - - 0.0
17/07:00pm 16.9 14.5 11.4 70 3.0 S 15 22 8 12 - - 0.0
17/06:30pm 17.6 14.7 10.9 65 3.7 SSE 17 24 9 13 - - 0.0
17/06:00pm 18.1 15.1 10.5 61 4.1 S 17 22 9 12 - - 0.0
17/05:30pm 18.9 15.9 10.5 58 4.6 S 17 26 9 14 - - 0.0
17/05:00pm 20.6 16.1 10.1 51 5.7 S 24 33 13 18 - - 0.0
17/04:30pm 22.5 18.4 8.6 41 7.5 S 20 28 11 15 - - 0.0
17/04:00pm 23.2 19.0 9.9 43 7.3 S 22 32 12 17 - - 0.0
17/03:30pm 23.3 18.8 10.0 43 7.4 S 24 32 13 17 - - 0.0
17/03:00pm 26.0 22.0 8.9 34 9.4 SSW 20 32 11 17 - - 0.0
17/02:30pm 25.8 21.9 9.6 36 9.0 S 20 32 11 17 - - 0.0
17/02:00pm 25.7 22.7 9.1 35 9.1 WSW 15 20 8 11 - - 0.0
17/01:30pm 25.3 22.3 9.2 36 8.9 WSW 15 22 8 12 - - 0.0
17/01:00pm 25.4 22.6 10.1 38 8.6 SW 15 26 8 14 - - 0.0
17/12:30pm 24.6 21.6 10.5 41 7.9 SW 17 26 9 14 - - 0.0
17/12:00pm 24.4 21.9 11.0 43 7.6 SSW 15 22 8 12 - - 0.0
17/11:30am 23.4 21.3 11.1 46 6.9 SSW 13 20 7 11 - - 0.0
17/11:00am 23.0 21.4 11.4 48 6.6 SW 11 19 6 10 - - 0.0
17/10:30am 21.4 18.9 11.1 52 5.7 SW 15 24 8 13 - - 0.0
17/10:00am 20.6 17.9 10.4 52 5.6 SSW 15 20 8 11 - - 0.0
17/09:30am 19.8 17.6 10.8 56 5.0 WSW 13 17 7 9 - - 0.0
17/09:00am 19.8 17.7 11.3 58 4.7 WSW 13 19 7 10 - - 0.0
17/08:30am 18.4 17.9 12.2 67 3.5 WSW 6 7 3 4 - - 0.0
17/08:00am 16.4 17.0 11.8 74 2.5 CALM 0 0 0 0 - - 0.0
17/07:30am 12.9 13.1 10.6 86 1.2 CALM 0 0 0 0 - - 0.0
17/07:00am 10.1 9.4 8.4 89 0.8 SW 2 4 1 2 - - 0.0
17/06:30am 7.0 5.9 5.2 88 0.8 CALM 0 0 0 0 - - 0.0
17/06:00am 6.7 5.6 4.9 88 0.8 CALM 0 2 0 1 - - 0.0
17/05:30am 6.8 5.7 5.0 88 0.8 CALM 0 0 0 0 - - 0.0
17/05:00am 6.8 5.7 5.0 88 0.8 CALM 0 0 0 0 - - 0.0
17/04:30am 6.9 5.8 5.1 88 0.8 CALM 0 0 0 0 - - 0.0
17/04:00am 6.9 5.8 5.1 88 0.8 CALM 0 0 0 0 - - 0.0
17/03:30am 7.0 5.9 5.0 87 0.9 CALM 0 0 0 0 - - 0.0
17/03:00am 7.0 5.9 5.0 87 0.9 CALM 0 0 0 0 - - 0.0
17/02:30am 7.2 6.1 5.2 87 0.9 CALM 0 0 0 0 - - 0.0
17/02:00am 7.6 6.6 5.6 87 0.9 CALM 0 0 0 0 - - 0.0
17/01:30am 7.8 6.8 5.6 86 1.0 CALM 0 0 0 0 - - 0.0
17/01:00am 8.2 7.2 5.8 85 1.1 CALM 0 0 0 0 - - 0.0
17/12:30am 8.7 7.8 6.0 83 1.3 CALM 0 0 0 0 - - 0.0
17/12:00am 9.9 8.8 7.0 82 1.4 SE 2 2 1 1 - - 0.0
 
Date/Time
WST
Temp
°C
App
Temp
°C
Dew
Point
Rel
Hum
%
Delta-T
°C
Wind Press
QNH
hPa
Press
MSL
hPa
Rain
since 9 am
mm
Dir
 
Spd
km/h
Gust
km/h
Spd
kts
Gust
kts
16/11:30pm 10.4 9.4 7.3 81 1.5 SE 2 4 1 2 - - 0.0
16/11:00pm 10.8 9.5 7.5 80 1.6 SE 4 4 2 2 - - 0.0
16/10:30pm 11.6 10.4 8.1 79 1.7 SE 4 4 2 2 - - 0.0
16/10:00pm 12.3 11.6 8.6 78 1.9 SE 2 4 1 2 - - 0.0
16/09:30pm 13.6 12.7 9.3 75 2.2 SE 4 6 2 3 - - 0.0
16/09:00pm 13.8 12.3 8.6 71 2.6 SE 6 7 3 4 - - 0.0
16/08:30pm 14.0 12.5 8.4 69 2.8 S 6 7 3 4 - - 0.0
16/08:00pm 13.9 13.5 8.3 69 2.8 CALM 0 0 0 0 - - 0.0
16/07:30pm 14.7 13.6 8.6 67 3.1 NE 4 4 2 2 - - 0.0
16/07:00pm 15.2 14.3 9.3 68 3.1 ENE 4 7 2 4 - - 0.0
16/06:30pm 16.5 16.3 9.0 61 3.9 CALM 0 0 0 0 - - 0.0
16/06:00pm 18.1 17.9 8.9 55 4.8 CALM 0 4 0 2 - - 0.0
16/05:30pm 20.9 20.4 9.2 47 6.3 SSW 2 2 1 1 - - 0.0

Other Formats:

Comma delimited format used in spreadsheet applications
http://www.bom.gov.au/fwo/IDW60801/IDW60801.95639.axf

JavaScript Object Notation format (JSON) in row-major order
http://www.bom.gov.au/fwo/IDW60801/IDW60801.95639.json